Time;durP1;ratioP1;P1;durP2;ratioP2;P2;SDS_P1;SDS_P2;PMS_P1;PMS_P2;Temp;Humidity;BMP_temperature;BMP_pressure;BME280_temperature;BME280_humidity;BME280_pressure;Samples;Min_cycle;Max_cycle;Signal;HPM_P1;HPM_P2
2021/12/01 05:11:46;;;;;;;2.03;1.92;;;;;;;3.71;89.10;99569.63;5557440;32;158330;-87
2021/12/01 05:14:49;;;;;;;2.22;2.03;;;;;;;3.57;89.80;99560.47;5543092;32;33867;-88
2021/12/01 05:17:51;;;;;;;2.33;2.12;;;;;;;3.57;89.70;99557.84;5543215;32;33437;-87
2021/12/01 05:20:54;;;;;;;1.62;1.52;;;;;;;3.65;89.23;99554.97;5543213;32;35063;-87
2021/12/01 05:23:57;;;;;;;1.83;1.73;;;;;;;3.58;89.42;99556.09;5545699;32;34633;-88
2021/12/01 05:27:00;;;;;;;2.30;1.90;;;;;;;3.52;89.73;99574.66;5553610;32;34833;-88
2021/12/01 05:30:05;;;;;;;1.90;1.80;;;;;;;3.58;89.93;99574.44;5549421;32;33658;-87
2021/12/01 05:33:09;;;;;;;3.50;1.90;;;;;;;3.57;89.74;99594.56;5546160;32;34459;-87
2021/12/01 05:36:17;;;;;;;1.90;1.60;;;;;;;3.56;90.31;99607.75;5550340;32;33836;-87
2021/12/01 05:39:19;;;;;;;2.08;1.75;;;;;;;3.50;90.49;99614.91;5553906;32;33615;-87
2021/12/01 05:42:22;;;;;;;1.70;1.60;;;;;;;3.59;90.41;99628.59;5544899;32;34120;-88
2021/12/01 05:45:25;;;;;;;2.17;1.95;;;;;;;3.52;90.34;99633.19;5543187;32;35098;-88
2021/12/01 05:48:27;;;;;;;1.62;1.52;;;;;;;3.61;90.17;99646.00;5544116;32;33948;-88
2021/12/01 05:51:30;;;;;;;1.90;1.58;;;;;;;3.68;89.47;99651.94;5527853;32;34237;-87
2021/12/01 05:54:33;;;;;;;2.17;1.73;;;;;;;3.74;89.47;99653.47;5542486;32;34753;-86
2021/12/01 05:57:37;;;;;;;2.08;1.50;;;;;;;3.78;89.34;99668.22;5530725;32;34547;-87
2021/12/01 06:00:40;;;;;;;1.83;1.60;;;;;;;3.89;89.09;99658.19;5525346;32;34166;-90
2021/12/01 06:03:43;;;;;;;3.55;1.60;;;;;;;3.93;88.44;99661.59;5533898;32;33858;-91
2021/12/01 06:06:46;;;;;;;2.60;1.60;;;;;;;3.97;88.72;99660.56;5539429;32;34091;-91
2021/12/01 06:09:48;;;;;;;2.45;1.85;;;;;;;4.06;87.90;99666.44;5541328;32;34561;-88
2021/12/01 06:12:52;;;;;;;3.17;1.70;;;;;;;4.11;88.08;99670.59;5537103;32;33904;-88
2021/12/01 06:15:55;;;;;;;1.98;1.70;;;;;;;4.19;87.42;99672.97;5540001;32;35682;-87
2021/12/01 06:18:57;;;;;;;2.20;1.52;;;;;;;4.12;87.98;99676.72;5545042;32;35125;-87
2021/12/01 06:22:01;;;;;;;2.15;1.65;;;;;;;4.11;88.55;99691.59;5530906;32;33840;-87
2021/12/01 06:25:04;;;;;;;2.28;1.58;;;;;;;4.28;88.02;99687.56;5514741;32;34215;-88
2021/12/01 06:28:07;;;;;;;1.62;1.52;;;;;;;4.32;87.39;99697.03;5520767;32;33930;-87
2021/12/01 06:31:10;;;;;;;1.75;1.65;;;;;;;4.41;86.54;99719.47;5529598;32;34242;-86
2021/12/01 06:34:13;;;;;;;2.45;2.17;;;;;;;4.49;86.50;99714.84;5534986;32;36678;-86
2021/12/01 06:37:18;;;;;;;3.35;2.10;;;;;;;4.50;85.93;99721.81;5529205;32;34748;-87
2021/12/01 06:40:22;;;;;;;1.73;1.62;;;;;;;4.54;86.44;99731.25;5531943;32;33934;-86
2021/12/01 06:43:24;;;;;;;2.70;2.03;;;;;;;4.50;85.75;99723.56;5519715;32;34608;-86
2021/12/01 06:46:28;;;;;;;7.28;2.20;;;;;;;4.50;85.96;99739.31;5514994;32;33889;-86
2021/12/01 06:49:31;;;;;;;2.50;2.17;;;;;;;4.51;86.34;99735.78;5521614;32;33719;-86
2021/12/01 06:52:34;;;;;;;2.20;2.00;;;;;;;4.55;86.25;99730.38;5516719;32;35125;-87
2021/12/01 06:55:36;;;;;;;3.00;2.20;;;;;;;4.63;85.81;99735.34;5521644;32;33528;-86
2021/12/01 06:58:39;;;;;;;2.05;1.92;;;;;;;4.58;86.39;99732.03;5510289;32;34783;-86
2021/12/01 07:01:42;;;;;;;2.20;2.00;;;;;;;4.62;86.10;99741.50;5522757;32;34233;-88
2021/12/01 07:04:45;;;;;;;3.40;2.30;;;;;;;4.55;86.52;99746.16;5526242;32;34013;-87
2021/12/01 07:07:48;;;;;;;8.82;2.50;;;;;;;4.52;86.87;99740.97;5526598;32;33512;-87
2021/12/01 07:10:51;;;;;;;5.72;2.20;;;;;;;4.53;86.90;99739.22;5534018;32;35034;-87
2021/12/01 07:13:54;;;;;;;1.87;1.70;;;;;;;4.54;86.99;99733.87;5524099;32;33814;-88
2021/12/01 07:16:57;;;;;;;1.98;1.77;;;;;;;4.75;85.58;99734.06;5516974;32;34884;-88
2021/12/01 07:19:59;;;;;;;2.50;2.30;;;;;;;4.72;85.61;99736.78;5522281;32;34532;-87
2021/12/01 07:23:03;;;;;;;6.32;2.20;;;;;;;4.76;85.51;99740.16;5522630;32;34491;-87
2021/12/01 07:26:05;;;;;;;3.40;2.30;;;;;;;4.80;85.69;99745.28;5526725;32;33555;-88
2021/12/01 07:29:09;;;;;;;2.87;2.58;;;;;;;4.80;86.01;99736.50;5528824;32;34523;-88
2021/12/01 07:32:11;;;;;;;4.82;2.60;;;;;;;4.97;85.19;99728.88;5534393;32;34089;-87
2021/12/01 07:35:15;;;;;;;9.70;3.30;;;;;;;4.95;85.63;99728.09;5530946;32;34362;-88
2021/12/01 07:38:17;;;;;;;9.38;2.72;;;;;;;4.99;85.62;99724.41;5524284;32;33791;-87
2021/12/01 07:41:21;;;;;;;19.50;4.68;;;;;;;5.05;84.83;99706.69;5519495;32;34443;-87
2021/12/01 07:44:24;;;;;;;27.30;3.85;;;;;;;4.96;85.91;99702.66;5533338;32;34219;-87
2021/12/01 07:47:27;;;;;;;20.25;2.83;;;;;;;5.12;85.90;99690.66;5534820;32;34549;-88
2021/12/01 07:50:30;;;;;;;12.68;3.10;;;;;;;5.18;84.87;99694.78;5538041;32;34183;-88
2021/12/01 07:53:33;;;;;;;3.03;1.83;;;;;;;5.48;83.14;99698.94;5526368;32;34164;-86
2021/12/01 07:56:35;;;;;;;3.90;2.30;;;;;;;5.57;82.24;99710.87;5514472;32;33624;-87
2021/12/01 07:59:38;;;;;;;3.25;2.70;;;;;;;5.50;82.81;99724.28;5521069;32;35163;-87
2021/12/01 08:02:41;;;;;;;2.47;2.28;;;;;;;5.37;83.29;99723.03;5522765;32;34022;-88
2021/12/01 08:05:47;;;;;;;3.67;2.70;;;;;;;5.41;83.85;99729.88;5522117;32;33499;-88
2021/12/01 08:08:49;;;;;;;5.32;2.90;;;;;;;5.62;83.43;99728.19;5529694;32;35125;-89
2021/12/01 08:11:54;;;;;;;7.50;2.58;;;;;;;5.61;82.42;99726.47;5530385;32;33767;-87
2021/12/01 08:14:56;;;;;;;4.18;2.85;;;;;;;5.53;83.22;99721.50;5516218;32;34781;-86
2021/12/01 08:17:59;;;;;;;5.93;2.50;;;;;;;5.36;83.83;99724.81;5513513;32;34062;-87
2021/12/01 08:21:02;;;;;;;3.97;2.90;;;;;;;5.33;84.36;99714.38;5540862;32;34197;-87
2021/12/01 08:24:05;;;;;;;5.87;3.05;;;;;;;5.50;84.20;99718.16;5533577;32;35131;-88
2021/12/01 08:27:13;;;;;;;3.90;2.50;;;;;;;5.60;84.57;99706.34;5522784;32;34398;-88
2021/12/01 08:30:22;;;;;;;2.78;2.10;;;;;;;5.65;84.53;99701.75;5519388;32;34558;-88
2021/12/01 08:33:25;;;;;;;4.15;2.53;;;;;;;5.73;85.87;99701.44;5525239;32;33484;-87
2021/12/01 08:36:28;;;;;;;5.30;2.62;;;;;;;5.76;85.50;99690.81;5523401;32;33596;-88
2021/12/01 08:39:31;;;;;;;6.87;3.12;;;;;;;5.49;85.87;99687.50;5510544;32;34581;-88
2021/12/01 08:42:34;;;;;;;3.37;2.85;;;;;;;5.56;86.93;99686.34;5510354;32;33905;-87
2021/12/01 08:45:37;;;;;;;3.42;2.40;;;;;;;5.67;87.03;99680.63;5510787;32;34208;-88
2021/12/01 08:48:40;;;;;;;3.55;2.65;;;;;;;5.53;88.46;99700.47;5510069;32;34572;-87
2021/12/01 08:51:43;;;;;;;2.72;2.53;;;;;;;5.58;88.02;99699.44;5512809;32;34399;-87
2021/12/01 08:54:45;;;;;;;3.00;2.80;;;;;;;5.72;89.17;99705.00;5512859;32;33673;-87
2021/12/01 08:57:49;;;;;;;3.58;2.70;;;;;;;5.82;89.87;99712.53;5512684;32;35158;-87
2021/12/01 09:00:54;;;;;;;4.30;2.67;;;;;;;5.87;89.81;99706.16;5518005;32;34089;-86
2021/12/01 09:03:57;;;;;;;8.90;3.03;;;;;;;5.97;88.62;99703.13;5532070;32;33665;-87
2021/12/01 09:06:59;;;;;;;2.92;2.58;;;;;;;6.02;86.29;99703.78;5530706;32;34795;-87
2021/12/01 09:10:04;;;;;;;4.37;2.85;;;;;;;6.13;86.61;99698.97;5517895;32;34140;-86
2021/12/01 09:13:08;;;;;;;4.85;2.70;;;;;;;6.17;87.00;99697.91;5518652;32;33889;-87
2021/12/01 09:16:10;;;;;;;3.55;2.97;;;;;;;6.14;86.82;99689.31;5530581;32;34140;-87
2021/12/01 09:19:14;;;;;;;3.28;2.67;;;;;;;6.12;86.87;99688.47;5530128;32;35783;-87
2021/12/01 09:22:18;;;;;;;4.53;2.80;;;;;;;5.97;88.22;99689.94;5533093;32;34331;-87
2021/12/01 09:25:22;;;;;;;2.45;2.25;;;;;;;6.42;86.21;99686.34;5531175;32;34201;-87
2021/12/01 09:28:44;;;;;;;5.70;3.12;;;;;;;6.63;85.62;99682.81;5536268;32;33993;-87
2021/12/01 09:31:48;;;;;;;4.57;3.33;;;;;;;6.51;86.01;99682.44;5540062;32;34168;-87
2021/12/01 09:34:51;;;;;;;5.57;3.08;;;;;;;6.55;86.86;99677.88;5535849;32;34223;-86
2021/12/01 09:37:53;;;;;;;5.20;3.25;;;;;;;6.47;87.53;99675.59;5540472;32;34690;-87
2021/12/01 09:40:58;;;;;;;3.65;3.12;;;;;;;6.10;89.00;99675.41;5526920;32;34816;-86
2021/12/01 09:44:01;;;;;;;7.62;3.45;;;;;;;6.54;86.98;99663.00;5522036;32;34791;-86
2021/12/01 09:47:05;;;;;;;4.68;2.85;;;;;;;6.51;86.58;99658.72;5535469;32;33946;-85
2021/12/01 09:50:09;;;;;;;3.83;3.20;;;;;;;6.23;88.26;99651.19;5531397;32;34130;-85
2021/12/01 09:53:13;;;;;;;2.85;2.60;;;;;;;6.31;88.43;99634.13;5527922;32;33810;-84
2021/12/01 09:56:16;;;;;;;3.85;3.45;;;;;;;6.54;86.86;99620.84;5517191;32;33856;-84
2021/12/01 09:59:19;;;;;;;4.80;3.40;;;;;;;6.61;88.24;99652.09;5528521;32;33996;-84
2021/12/01 10:02:25;;;;;;;14.43;5.32;;;;;;;6.94;86.59;99615.53;5516901;32;34079;-84
2021/12/01 10:05:46;;;;;;;3.92;2.80;;;;;;;8.06;85.86;99624.12;5522869;32;33915;-84
2021/12/01 10:09:01;;;;;;;4.43;3.25;;;;;;;8.41;78.56;99610.03;5513988;32;34882;-88
2021/12/01 10:12:07;;;;;;;4.65;3.50;;;;;;;8.33;80.68;99614.84;5520559;32;35252;-84
2021/12/01 10:15:10;;;;;;;5.65;3.17;;;;;;;8.48;77.81;99614.06;5532559;32;34333;-84
2021/12/01 10:18:16;;;;;;;7.53;4.00;;;;;;;7.96;80.65;99610.53;5533002;32;34442;-82
2021/12/01 10:21:33;;;;;;;5.87;4.37;;;;;;;7.57;82.08;99603.72;5530465;32;34265;-82
2021/12/01 10:24:38;;;;;;;7.28;4.45;;;;;;;7.50;83.66;99603.16;5526024;32;33519;-82
2021/12/01 10:27:43;;;;;;;10.00;4.97;;;;;;;7.13;84.91;99615.47;5532674;32;34343;-86
2021/12/01 10:30:46;;;;;;;8.27;5.35;;;;;;;6.94;86.08;99613.72;5532693;32;34203;-84
2021/12/01 10:33:49;;;;;;;13.48;5.20;;;;;;;6.96;85.83;99616.28;5516320;32;34195;-83
2021/12/01 10:37:26;;;;;;;5.95;5.05;;;;;;;7.10;84.96;99619.13;5517983;32;34179;-84
2021/12/01 10:40:30;;;;;;;7.80;4.82;;;;;;;7.30;84.24;99627.03;5533490;32;34322;-83
2021/12/01 10:43:36;;;;;;;10.82;4.95;;;;;;;7.43;82.43;99606.19;5538045;32;34190;-84
2021/12/01 10:46:47;;;;;;;7.85;5.07;;;;;;;7.04;83.48;99618.56;5537845;32;34335;-84
2021/12/01 10:49:50;;;;;;;6.03;4.35;;;;;;;7.05;84.33;99617.66;5537856;32;33782;-84
2021/12/01 10:53:01;;;;;;;8.30;4.87;;;;;;;7.19;81.73;99609.91;5522452;32;34179;-84
2021/12/01 10:56:05;;;;;;;8.07;5.07;;;;;;;7.32;81.70;99617.25;5520230;32;34171;-83
2021/12/01 10:59:10;;;;;;;7.72;5.25;;;;;;;6.97;81.69;99610.94;5516422;32;34749;-83
2021/12/01 11:02:15;;;;;;;7.28;5.30;;;;;;;6.85;82.24;99608.91;5516173;32;33776;-83
2021/12/01 11:05:25;;;;;;;6.60;4.65;;;;;;;6.98;80.70;99594.19;5527380;32;34797;-84
2021/12/01 11:08:30;;;;;;;7.20;5.20;;;;;;;6.96;79.14;99589.94;5528398;32;34118;-85
2021/12/01 11:11:42;;;;;;;8.45;5.60;;;;;;;7.04;79.54;99594.84;5537080;32;34305;-90
2021/12/01 11:15:25;;;;;;;7.12;5.53;;;;;;;7.21;77.07;99589.63;5541941;32;35012;-86
2021/12/01 11:18:30;;;;;;;9.73;5.90;;;;;;;7.02;77.84;99573.81;5544734;32;34762;-86
2021/12/01 11:21:41;;;;;;;6.25;4.82;;;;;;;7.05;77.15;99572.81;5538676;32;34284;-84
2021/12/01 11:24:44;;;;;;;7.40;4.70;;;;;;;7.19;75.00;99567.72;5540623;32;32872;-84
2021/12/01 11:27:48;;;;;;;8.20;5.57;;;;;;;7.17;74.18;99566.06;5536418;32;34957;-85
2021/12/01 11:30:55;;;;;;;6.93;5.22;;;;;;;7.33;73.51;99553.00;5517781;32;36320;-84
2021/12/01 11:34:06;;;;;;;8.10;5.32;;;;;;;7.27;73.10;99564.72;5533713;32;34183;-84
2021/12/01 11:37:08;;;;;;;8.07;4.85;;;;;;;7.40;72.39;99551.78;5538286;32;34992;-84
2021/12/01 11:40:11;;;;;;;8.50;4.60;;;;;;;7.59;71.78;99545.56;5538610;32;33799;-84
2021/12/01 11:43:16;;;;;;;9.10;5.22;;;;;;;7.60;71.16;99528.78;5538900;32;34147;-84
2021/12/01 11:46:19;;;;;;;8.68;5.03;;;;;;;7.39;71.38;99516.59;5532846;32;34376;-85
2021/12/01 11:49:23;;;;;;;6.80;4.75;;;;;;;7.18;73.13;99512.41;5521171;32;34127;-84
2021/12/01 11:52:41;;;;;;;11.65;5.35;;;;;;;7.44;71.85;99503.16;5536063;32;34336;-84
2021/12/01 11:55:52;;;;;;;6.72;4.65;;;;;;;7.22;73.00;99498.13;5525251;32;33499;-84
2021/12/01 11:59:13;;;;;;;8.35;5.28;;;;;;;7.41;73.16;99493.62;5533192;32;34711;-86
2021/12/01 12:02:16;;;;;;;10.30;4.78;;;;;;;7.49;72.29;99495.03;5536639;32;34788;-86
2021/12/01 12:05:21;;;;;;;8.35;4.43;;;;;;;7.57;72.50;99474.38;5537005;32;34534;-89
2021/12/01 12:09:18;;;;;;;8.90;4.85;;;;;;;7.45;72.36;99460.03;5526506;32;34646;-90
2021/12/01 12:12:21;;;;;;;6.53;4.57;;;;;;;7.56;71.82;99467.41;5458402;32;34797;-85
2021/12/01 12:15:42;;;;;;;6.20;4.57;;;;;;;7.65;71.58;99450.22;5458744;32;32037;-85
2021/12/01 12:18:49;;;;;;;8.65;4.68;;;;;;;7.66;72.44;99444.84;5456003;32;33810;-84
2021/12/01 12:21:59;;;;;;;8.15;4.80;;;;;;;7.73;72.64;99444.53;5456615;32;33962;-85
2021/12/01 12:25:06;;;;;;;9.18;4.78;;;;;;;7.99;70.92;99444.94;5457584;32;34015;-85
2021/12/01 12:28:20;;;;;;;12.55;4.90;;;;;;;8.08;70.17;99429.44;5460586;32;33980;-85
2021/12/01 12:31:23;;;;;;;7.80;4.55;;;;;;;7.99;69.38;99440.50;5457556;32;33970;-84
2021/12/01 12:34:25;;;;;;;9.15;4.07;;;;;;;8.03;69.26;99442.03;5457423;32;34370;-85
2021/12/01 12:37:46;;;;;;;5.90;4.40;;;;;;;8.27;66.55;99425.78;5449614;32;34657;-84
2021/12/01 12:41:00;;;;;;;9.63;4.40;;;;;;;8.26;67.27;99433.78;5461053;32;33869;-85
2021/12/01 12:44:31;;;;;;;8.95;4.32;;;;;;;8.45;64.21;99425.72;5455451;32;34912;-85
2021/12/01 12:47:49;;;;;;;6.93;4.90;;;;;;;8.27;64.72;99419.66;5536152;32;35073;-85
2021/12/01 12:51:10;;;;;;;7.57;4.47;;;;;;;8.22;64.81;99427.84;5531920;32;34495;-85
2021/12/01 12:54:15;;;;;;;11.38;5.25;;;;;;;7.97;66.13;99413.31;5533715;32;33764;-85
2021/12/01 12:57:18;;;;;;;10.57;4.68;;;;;;;7.74;67.65;99417.22;5525953;32;34977;-86
2021/12/01 13:00:22;;;;;;;9.27;4.78;;;;;;;7.75;67.58;99400.44;5528523;32;35599;-86
2021/12/01 13:03:25;;;;;;;9.90;4.43;;;;;;;7.82;67.35;99400.03;5536988;32;35274;-85
2021/12/01 13:06:29;;;;;;;6.93;4.22;;;;;;;7.94;67.89;99395.84;5532780;32;34309;-85
2021/12/01 13:09:34;;;;;;;7.60;4.95;;;;;;;8.02;67.14;99391.94;5527672;32;34916;-85
2021/12/01 13:12:49;;;;;;;6.82;4.62;;;;;;;7.92;67.52;99381.91;5520601;32;33153;-85
2021/12/01 13:15:53;;;;;;;7.62;4.60;;;;;;;8.08;66.45;99381.03;5536454;32;34398;-85
2021/12/01 13:19:07;;;;;;;7.53;4.10;;;;;;;8.15;65.48;99381.56;5536696;32;34075;-84
2021/12/01 13:22:12;;;;;;;9.80;4.65;;;;;;;8.06;65.51;99383.75;5535989;32;34669;-85
2021/12/01 13:25:31;;;;;;;6.65;4.05;;;;;;;7.80;66.71;99388.69;5531897;32;34364;-84
2021/12/01 13:28:57;;;;;;;5.75;3.80;;;;;;;7.79;67.01;99386.97;5517800;32;34653;-84
2021/12/01 13:32:01;;;;;;;8.05;4.47;;;;;;;7.66;67.25;99383.31;5519471;32;33669;-88
2021/12/01 13:35:04;;;;;;;7.22;4.82;;;;;;;7.64;67.52;99380.72;5536572;32;33428;-89
2021/12/01 13:38:08;;;;;;;7.20;4.75;;;;;;;7.59;67.06;99379.28;5531133;32;34562;-89
2021/12/01 13:41:23;;;;;;;7.20;4.70;;;;;;;7.54;67.68;99372.47;5526493;32;34154;-85
2021/12/01 13:44:37;;;;;;;8.15;5.85;;;;;;;7.52;68.29;99374.34;5530415;32;35375;-84
2021/12/01 13:47:41;;;;;;;10.52;4.93;;;;;;;7.63;67.70;99375.53;5539175;32;33965;-84
2021/12/01 13:50:43;;;;;;;8.40;4.93;;;;;;;7.49;68.28;99371.00;5538124;32;34073;-83
2021/12/01 13:53:46;;;;;;;10.80;4.87;;;;;;;7.41;68.98;99371.41;5536495;32;33574;-85
2021/12/01 13:56:57;;;;;;;8.82;4.80;;;;;;;7.33;69.05;99365.69;5545967;32;34142;-85
2021/12/01 14:00:01;;;;;;;12.77;4.85;;;;;;;7.39;68.77;99362.72;5518531;32;33847;-84
2021/12/01 14:03:18;;;;;;;6.00;4.30;;;;;;;7.35;68.92;99362.00;5530210;32;34004;-84
2021/12/01 14:06:27;;;;;;;9.00;4.47;;;;;;;7.38;68.11;99359.22;5532349;32;34131;-84
2021/12/01 14:10:03;;;;;;;10.10;4.33;;;;;;;7.38;68.17;99355.72;5533737;32;35101;-84
2021/12/01 14:13:06;;;;;;;11.18;4.40;;;;;;;7.40;68.42;99359.16;5528417;32;34273;-84
2021/12/01 14:16:09;;;;;;;6.95;4.53;;;;;;;7.31;68.43;99367.53;5525594;32;34228;-84
2021/12/01 14:19:13;;;;;;;8.10;4.47;;;;;;;7.24;68.96;99359.94;5540550;32;35094;-83
2021/12/01 14:22:20;;;;;;;9.68;4.65;;;;;;;7.24;69.37;99356.47;5533374;32;34688;-84
2021/12/01 14:25:23;;;;;;;10.90;4.35;;;;;;;7.20;69.41;99347.00;5523394;32;34841;-84
2021/12/01 14:28:26;;;;;;;9.10;4.47;;;;;;;7.34;69.27;99351.56;5536754;32;34365;-84
2021/12/01 14:31:29;;;;;;;11.75;4.30;;;;;;;7.31;69.43;99346.44;5522183;32;34038;-84
2021/12/01 14:34:37;;;;;;;7.22;4.70;;;;;;;7.25;70.24;99339.72;5518019;32;34386;-84
2021/12/01 14:37:40;;;;;;;11.68;4.60;;;;;;;7.25;70.57;99332.63;5517949;32;33976;-84
2021/12/01 14:40:47;;;;;;;7.03;4.65;;;;;;;7.31;70.55;99336.75;5516876;32;34278;-84
2021/12/01 14:43:59;;;;;;;8.63;4.65;;;;;;;7.32;70.74;99324.41;5518508;32;33763;-90
2021/12/01 14:47:05;;;;;;;7.10;4.18;;;;;;;7.14;71.83;99325.28;5518174;32;35473;-86
2021/12/01 14:50:21;;;;;;;9.48;5.00;;;;;;;7.21;71.47;99323.19;5516901;32;34091;-86
2021/12/01 14:53:25;;;;;;;12.10;4.75;;;;;;;7.16;71.81;99322.56;5517511;32;34535;-86
2021/12/01 14:56:28;;;;;;;10.00;5.07;;;;;;;7.17;72.54;99323.41;5517309;32;34760;-85
2021/12/01 14:59:32;;;;;;;8.68;4.93;;;;;;;7.18;72.49;99310.16;5517308;32;34201;-85
2021/12/01 15:02:37;;;;;;;10.10;5.40;;;;;;;7.17;72.39;99321.66;5516485;32;35219;-85
2021/12/01 15:05:47;;;;;;;8.35;4.80;;;;;;;7.24;72.30;99311.62;5516578;32;35268;-85
2021/12/01 15:08:49;;;;;;;11.18;5.32;;;;;;;7.24;72.26;99316.91;5515696;32;34211;-86
2021/12/01 15:11:52;;;;;;;10.57;5.15;;;;;;;7.12;73.09;99319.25;5514435;32;34351;-86
2021/12/01 15:14:55;;;;;;;9.95;5.28;;;;;;;7.09;73.18;99302.75;5512051;32;33876;-87
2021/12/01 15:18:03;;;;;;;8.52;4.53;;;;;;;7.12;73.37;99305.19;5510688;32;34029;-86
2021/12/01 15:21:18;;;;;;;9.27;4.97;;;;;;;7.15;73.97;99294.50;5522036;32;34227;-84
2021/12/01 15:24:24;;;;;;;9.70;4.93;;;;;;;7.15;74.26;99292.69;5516644;32;33050;-84
2021/12/01 15:27:28;;;;;;;10.30;4.80;;;;;;;7.16;74.82;99293.56;5514085;32;35256;-85
2021/12/01 15:30:32;;;;;;;8.68;5.30;;;;;;;7.08;76.00;99290.47;5515843;32;33180;-84
2021/12/01 15:33:35;;;;;;;12.85;5.90;;;;;;;6.95;77.82;99279.72;5514971;32;34077;-85
2021/12/01 15:36:42;;;;;;;9.38;5.22;;;;;;;6.73;79.67;99272.91;5514425;32;34215;-85
2021/12/01 15:39:45;;;;;;;11.95;5.43;;;;;;;6.72;79.41;99260.69;5520175;32;34078;-84
2021/12/01 15:42:48;;;;;;;14.23;5.60;;;;;;;6.68;80.02;99261.78;5531973;32;34073;-84
2021/12/01 15:45:51;;;;;;;11.10;5.70;;;;;;;6.68;80.83;99259.97;5519071;32;33810;-84
2021/12/01 15:48:57;;;;;;;8.80;5.50;;;;;;;6.64;81.16;99261.06;5518247;32;34705;-84
2021/12/01 15:52:02;;;;;;;9.15;6.03;;;;;;;6.67;79.95;99252.16;5530162;32;34219;-85
2021/12/01 15:55:06;;;;;;;14.13;6.10;;;;;;;6.64;80.94;99250.53;5531726;32;33604;-84
2021/12/01 15:58:09;;;;;;;12.05;6.97;;;;;;;6.72;80.34;99244.88;5534091;32;35116;-84
2021/12/01 16:01:12;;;;;;;11.85;7.12;;;;;;;6.69;80.54;99245.03;5534314;32;33789;-84
2021/12/01 16:04:17;;;;;;;13.30;6.80;;;;;;;6.65;81.06;99241.72;5532784;32;34577;-84
2021/12/01 16:07:20;;;;;;;14.65;6.97;;;;;;;6.61;81.47;99242.78;5532341;32;34171;-84
2021/12/01 16:10:23;;;;;;;15.52;7.95;;;;;;;6.74;80.75;99235.12;5533618;32;32921;-84
2021/12/01 16:13:25;;;;;;;13.43;8.13;;;;;;;6.79;80.01;99234.88;5533295;32;33989;-88
2021/12/01 16:16:28;;;;;;;16.50;7.72;;;;;;;6.84;79.46;99230.22;5532980;32;34647;-88
2021/12/01 16:19:35;;;;;;;14.02;7.95;;;;;;;6.88;79.34;99231.72;5533219;32;34653;-89
2021/12/01 16:22:42;;;;;;;12.70;7.68;;;;;;;6.93;79.35;99227.06;5532574;32;34972;-85
2021/12/01 16:25:45;;;;;;;14.52;7.97;;;;;;;6.93;79.30;99221.78;5533580;32;34274;-84
2021/12/01 16:28:48;;;;;;;12.73;7.75;;;;;;;6.85;79.63;99221.38;5534760;32;34192;-84
2021/12/01 16:31:52;;;;;;;13.38;8.45;;;;;;;6.78;80.29;99227.91;5533713;32;34752;-83
2021/12/01 16:34:54;;;;;;;14.95;8.70;;;;;;;6.90;79.06;99214.06;5553113;32;35255;-83
2021/12/01 16:38:01;;;;;;;17.55;7.93;;;;;;;6.87;79.05;99217.72;5558839;32;33876;-83
2021/12/01 16:41:08;;;;;;;16.73;8.60;;;;;;;6.88;78.87;99218.53;5557939;32;34249;-83
2021/12/01 16:44:11;;;;;;;14.77;8.43;;;;;;;6.93;78.89;99205.97;5553946;32;34534;-84
